Puerto Vallarta, Mexico

12:55 PM CDT on October 20, 2014 (GMT -0500)
Lic Gustavo Diaz Ordaz International | Change Station
CLOSE
Current Station
Airport
Location: Puerto Vallarta,
Elevation: 20 ft
Nearby Weather Stations

Elev 20 ft 20.68 °N, 105.25 °W | Updated 1 hour ago

Mostly Cloudy
Mostly Cloudy
84 °F
Feels Like 92 °F
N
5
Wind Variable Wind from SW

Today
High -- | Low -- °F
--% Chance of Precip.
Yesterday
High -- | Low -- °F
Precip. -- in
7:58 AM 7:33 PM
Waning Crescent, 10% visible
Pressure 29.83 in
Visibility 10.0 miles
Clouds Scattered Clouds 2000 ft
Mostly Cloudy 10000 ft
Heat Index 92 °F
Dew Point 75 °F
Humidity 74%
Rainfall 0.00 in
Snow Depth Not available.
UV 4 out of 12
Pollen Not available.
Air Quality Not available.
Flu Activity Not available.
METAR MMPR 201648Z 22004KT 10SM SCT020TCU BKN100 29/24 A2983 RMK 8/270 LWR CLDS/ALQDS

More Conditions Fewer Conditions

Pressure 29.83 in
Visibility 10.0 miles
Clouds Scattered Clouds 2000 ft
Mostly Cloudy 10000 ft
Heat Index 92 °F
Dew Point 75 °F
Humidity 74%
Rainfall 0.00 in
Snow Depth Not available.
UV 4 out of 12
Pollen Not available.
Air Quality Not available.
Flu Activity Not available.
METAR MMPR 201648Z 22004KT 10SM SCT020TCU BKN100 29/24 A2983 RMK 8/270 LWR CLDS/ALQDS

More Conditions Fewer Conditions

10-Day Weather Forecast

Almanac

Astronomy

Oct. 20, 2014 Rise Set
Actual Time 7:58 AM CDT 7:33 PM CDT
Civil Twilight 7:35 AM CDT 7:55 PM CDT
Nautical Twilight 7:09 AM CDT 8:21 PM CDT
Astronomical Twilight 6:43 AM CDT 8:47 PM CDT
Moon 5:12 AM CDT 5:37 PM CDT
Length of Visible Light 12h 19m
Length of Day
11h 35m
Tomorrow will be 1m 6s shorter.
Waning Crescent, 10% of the Moon is Illuminated
Today
Waning Crescent
Oct 23
New
Oct 30
First Quarter
Nov 6
Full
Nov 14
Last Quarter

Today's Extremes

Country Highs Country Lows

Community

WunderPhotos

Upload Photos

1,763,446 photos uploaded!

WunderBlogs® & News

Nearby

Snow Depth

Not available.

Earthquake Activity

City Distance Mag. Time & Date
No recent earthquake activity has been reported nearby.
Minimum magnitude displayed is 2.5.

Coastal Water Temperatures

Place Temperature
No Stations Reporting

Nearby Weather Stations